Terminal Aerodrome Forecast
Issued by NWS Midland/Odessa, TX

Home | Current Version | Previous Version | Text Only | Print | Product List | Glossary On
Versions: 1 2 3 4 5 6 7 8 9 10 11 12 13 14 15 16
000
FTUS44 KMAF 261700
TAFMAF
TAF
KMAF 261720Z 2618/2718 16010G20KT P6SM SKC
     FM271200 18012KT P6SM SKC
     FM271600 16011G21KT P6SM SCT060=

USA.gov is the U.S. government's official web portal to all federal, state and local government web resources and services.